Grant Park, Illinois
Current Conditions -  °F | °C
As of 11:15 PM on Wednesday 22 Oct 2014 (Local Time) from KIKK Reporting Station
Clear Clear  
Wind Chill: 38°   Ceiling: Unl
Heat Index: 38°   Visibility: 10mi
Dew Point: 37°   Wind: 3mph
Humidity: 93%   Direction: 60°ENE
Pressure: 30.29"   Gusts: NA
Location:  41.24°N, 87.65°W
Report Text: KIKK 230415Z AUTO 06003KT 10SM CLR 04/03 A3029 RMK AO2 T00350025
Loading
Personal Weather Stations






























Interactive Weather Map
Tropical Storm Tracking
New forecast layout! Learn more

10-Day Weather Forecast

Advertisements
Track Severe Weather on mobile